Bratislava, Slovakia
Current Conditions -  °F | °C
As of 9:30 AM on Wednesday 26 Nov 2014 (Local Time) from LZIB Reporting Station
Broken Clouds Broken Clouds  
Wind Chill:   Ceiling: 5000
Heat Index:   Visibility: 2.3mi
Dew Point:   Wind: 5mph
Humidity: 100%   Direction: 100°E
Pressure: 30.27"   Gusts: NA
Location:  48.16°N, 17.13°E
Report Text: LZIB 260730Z 10004KT 3800 FEW002 BKN050 02/02 Q1025 TEMPOBKN002
Loading
Personal Weather Stations






























Interactive Weather Map New forecast layout! Learn more

10-Day Weather Forecast

Advertisements
Track Severe Weather on mobile